Time;durP1;ratioP1;P1;durP2;ratioP2;P2;SDS_P1;SDS_P2;PMS_P1;PMS_P2;Temp;Humidity;BMP_temperature;BMP_pressure;BME280_temperature;BME280_humidity;BME280_pressure;Samples;Min_cycle;Max_cycle;Signal;HPM_P1;HPM_P2
2021/12/05 00:22:28;;;;;;;16.50;10.40;;;;;;;7.31;100.00;98622.56;4957088;29;20312;-84
2021/12/05 00:24:58;;;;;;;17.33;11.20;;;;;;;8.41;100.00;98817.19;4956148;29;20219;-85
2021/12/05 00:27:28;;;;;;;19.40;11.33;;;;;;;8.35;100.00;98812.72;4955088;29;20568;-85
2021/12/05 00:30:07;;;;;;;19.00;11.60;;;;;;;6.20;100.00;98465.84;4955658;29;20161;-85
2021/12/05 00:32:56;;;;;;;22.63;12.03;;;;;;;5.36;100.00;98307.94;4955751;29;20614;-85
2021/12/05 00:45:49;;;;;;;18.03;11.43;;;;;;;7.53;100.00;98630.25;4956305;29;20175;-85
2021/12/05 00:48:47;;;;;;;17.07;11.10;;;;;;;7.44;100.00;98592.13;4956492;29;20156;-85
2021/12/05 00:54:26;;;;;;;16.80;10.93;;;;;;;7.40;100.00;98564.19;4915805;29;1149033;-84
2021/12/05 01:10:56;;;;;;;14.80;9.60;;;;;;;6.98;100.00;98571.63;4877716;29;20262;-85
2021/12/05 01:13:34;;;;;;;14.83;9.50;;;;;;;7.51;100.00;98684.75;4893420;29;20171;-85
2021/12/05 01:16:08;;;;;;;16.07;10.27;;;;;;;8.33;100.00;98796.69;4892735;29;20191;-84
2021/12/05 01:18:34;;;;;;;18.37;10.23;;;;;;;6.07;100.00;98413.31;4877605;29;20604;-84
2021/12/05 01:21:06;;;;;;;14.97;10.17;;;;;;;8.40;100.00;98798.69;4890437;29;20216;-85
2021/12/05 01:34:49;;;;;;;15.97;9.23;;;;;;;8.13;100.00;98794.97;4840424;29;20283;-85
2021/12/05 01:40:02;;;;;;;11.57;8.30;;;;;;;7.97;100.00;98790.03;4878624;29;20202;-84
2021/12/05 01:45:40;;;;;;;11.80;8.43;;;;;;;7.83;100.00;98733.16;4887518;29;20195;-85
2021/12/05 02:01:19;;;;;;;13.53;7.70;;;;;;;6.33;100.00;98465.59;4878550;29;20190;-87
2021/12/05 02:31:00;;;;;;;21.63;9.90;;;;;;;8.15;100.00;98760.59;4940023;29;20172;-85
2021/12/05 02:41:18;;;;;;;24.13;10.10;;;;;;;6.65;100.00;98493.84;4918902;29;20252;-85
2021/12/05 02:44:11;;;;;;;20.63;10.83;;;;;;;7.41;100.00;98601.19;4931690;29;20717;-87
2021/12/05 02:46:43;;;;;;;22.53;10.50;;;;;;;5.65;100.00;98315.94;4938677;29;20217;-88
2021/12/05 02:49:11;;;;;;;23.33;10.87;;;;;;;8.06;100.00;98737.50;4926016;29;20178;-84
2021/12/05 02:51:37;;;;;;;21.67;11.17;;;;;;;7.99;100.00;98753.16;4930480;29;20143;-84
2021/12/05 02:54:11;;;;;;;25.83;13.27;;;;;;;5.83;100.00;98356.91;4917826;29;20232;-85
2021/12/05 02:56:43;;;;;;;26.10;13.50;;;;;;;7.30;100.00;98630.94;4901687;29;20189;-85
2021/12/05 02:59:24;;;;;;;33.90;16.27;;;;;;;7.29;100.00;98641.78;4917605;29;20197;-85
2021/12/05 03:02:14;;;;;;;41.87;19.07;;;;;;;7.61;100.00;98661.66;4917595;29;20174;-85
2021/12/05 03:04:42;;;;;;;37.10;18.27;;;;;;;7.39;100.00;98597.75;4916913;29;20197;-85
2021/12/05 03:07:09;;;;;;;40.30;18.67;;;;;;;8.06;100.00;98753.50;4916916;29;20221;-85
2021/12/05 03:09:37;;;;;;;41.87;18.37;;;;;;;7.32;100.00;98624.31;4917098;29;20174;-85
2021/12/05 03:12:04;;;;;;;40.33;18.80;;;;;;;8.10;100.00;98747.75;4923012;29;20251;-84
2021/12/05 03:14:29;;;;;;;42.50;18.77;;;;;;;8.10;100.00;98750.28;4964105;29;20165;-84
2021/12/05 03:16:55;;;;;;;41.10;18.37;;;;;;;7.76;100.00;98726.09;4964099;29;20168;-84
2021/12/05 03:19:21;;;;;;;41.17;17.73;;;;;;;5.42;100.00;98311.50;4959030;29;20177;-84
2021/12/05 03:21:48;;;;;;;38.57;17.00;;;;;;;7.93;100.00;98746.19;4958570;29;20180;-85
2021/12/05 03:24:15;;;;;;;33.83;16.80;;;;;;;7.72;100.00;98694.88;4958422;29;20168;-85
2021/12/05 03:26:45;;;;;;;36.10;16.47;;;;;;;5.65;100.00;98341.91;4960335;29;20192;-85
2021/12/05 03:29:13;;;;;;;34.00;15.57;;;;;;;7.69;100.00;98675.44;4957971;29;20180;-85
2021/12/05 03:31:39;;;;;;;30.77;15.27;;;;;;;8.17;100.00;98739.69;4957399;29;20167;-85
2021/12/05 03:34:07;;;;;;;30.97;14.90;;;;;;;8.14;100.00;98737.03;4957041;29;20169;-84
2021/12/05 03:36:35;;;;;;;31.67;14.40;;;;;;;7.93;100.00;98710.06;4940243;29;20534;-85
2021/12/05 03:39:02;;;;;;;32.17;14.97;;;;;;;4.59;100.00;98185.56;4957008;29;20523;-84
2021/12/05 03:41:29;;;;;;;34.33;14.20;;;;;;;6.90;100.00;98562.88;4955977;28;20645;-84
2021/12/05 03:43:56;;;;;;;31.17;14.67;;;;;;;7.30;100.00;98646.03;4957228;29;20547;-86
2021/12/05 03:46:23;;;;;;;35.17;14.90;;;;;;;6.46;100.00;98525.69;4956463;29;20184;-86
2021/12/05 03:48:53;;;;;;;34.50;15.00;;;;;;;7.80;100.00;98743.09;4956923;29;20169;-85
2021/12/05 03:51:21;;;;;;;36.20;15.20;;;;;;;7.42;100.00;98668.34;4939369;29;20176;-85
2021/12/05 03:53:47;;;;;;;36.30;14.17;;;;;;;7.24;100.00;98619.72;4956568;29;20229;-85
2021/12/05 03:56:13;;;;;;;34.33;15.10;;;;;;;4.84;100.00;98195.97;4956497;29;20183;-84
2021/12/05 03:58:40;;;;;;;34.37;15.57;;;;;;;4.61;100.00;98191.53;4956294;29;20176;-85
2021/12/05 04:01:08;;;;;;;36.87;16.43;;;;;;;6.79;100.00;98527.97;4955456;29;20175;-85
2021/12/05 04:03:35;;;;;;;35.10;16.33;;;;;;;5.44;100.00;98318.31;4956753;29;20175;-85
2021/12/05 04:06:02;;;;;;;38.40;16.63;;;;;;;8.01;100.00;98756.59;4956921;29;20227;-85
2021/12/05 04:08:29;;;;;;;28.93;14.70;;;;;;;6.10;100.00;98422.66;4956344;29;20192;-85
2021/12/05 04:11:00;;;;;;;27.17;12.50;;;;;;;7.44;100.00;98652.53;4955279;29;20269;-85
2021/12/05 04:13:27;;;;;;;28.80;12.30;;;;;;;5.58;100.00;98361.59;4956388;29;20172;-85
2021/12/05 04:15:55;;;;;;;29.50;13.67;;;;;;;5.66;100.00;98433.97;4970888;28;20184;-85
2021/12/05 04:18:21;;;;;;;29.40;12.53;;;;;;;4.98;100.00;98267.66;4973474;28;20168;-85
2021/12/05 04:20:48;;;;;;;35.83;12.40;;;;;;;5.52;100.00;98376.41;4957251;29;20604;-87
2021/12/05 04:23:14;;;;;;;32.17;12.80;;;;;;;6.80;100.00;98553.22;4939239;29;20556;-86
2021/12/05 04:25:40;;;;;;;35.30;13.73;;;;;;;8.08;100.00;98796.38;4955697;29;20175;-85
2021/12/05 04:28:09;;;;;;;34.13;13.97;;;;;;;7.40;100.00;98675.84;4955859;29;20588;-85
2021/12/05 04:30:35;;;;;;;39.27;15.77;;;;;;;8.10;100.00;98793.13;4974015;28;20284;-86
2021/12/05 04:33:01;;;;;;;50.93;17.20;;;;;;;7.30;100.00;98656.09;4971435;29;20176;-84
2021/12/05 04:35:27;;;;;;;48.10;16.20;;;;;;;7.13;100.00;98654.50;4956411;29;20177;-85
2021/12/05 04:37:52;;;;;;;49.33;16.70;;;;;;;5.18;100.00;98347.22;4956600;29;20530;-84
2021/12/05 04:40:18;;;;;;;48.70;17.80;;;;;;;5.85;100.00;98435.75;4958750;29;20301;-85
2021/12/05 04:42:44;;;;;;;53.83;16.97;;;;;;;6.21;100.00;98542.94;4959068;29;20172;-85
2021/12/05 04:45:14;;;;;;;51.03;17.93;;;;;;;5.14;100.00;98352.88;4955700;29;20165;-85
2021/12/05 04:47:40;;;;;;;46.10;17.57;;;;;;;6.78;100.00;98579.09;4955351;29;20197;-85
2021/12/05 04:50:06;;;;;;;44.80;16.63;;;;;;;7.52;100.00;98696.53;4955620;29;20256;-85
2021/12/05 04:52:32;;;;;;;47.27;17.70;;;;;;;5.88;100.00;98440.88;4938514;29;20173;-84
2021/12/05 04:54:58;;;;;;;42.60;16.10;;;;;;;8.01;100.00;98789.38;4954005;29;20600;-85
2021/12/05 04:57:24;;;;;;;44.33;16.73;;;;;;;8.12;100.00;98788.19;4955580;29;20175;-85
2021/12/05 04:59:52;;;;;;;54.60;21.47;;;;;;;5.44;100.00;98350.09;4955566;29;20247;-85
2021/12/05 05:02:19;;;;;;;46.87;17.30;;;;;;;8.17;100.00;98801.84;4969864;28;20177;-86
2021/12/05 05:04:50;;;;;;;43.47;19.00;;;;;;;7.51;100.00;98693.94;4954961;29;20590;-86
2021/12/05 05:07:27;;;;;;;26.07;11.20;;;;;;;8.23;100.00;98818.09;4955308;29;20189;-86
2021/12/05 05:09:56;;;;;;;25.30;10.87;;;;;;;5.56;100.00;98395.81;4955083;29;20168;-85
2021/12/05 05:12:22;;;;;;;26.03;10.60;;;;;;;8.20;100.00;98807.88;4956962;29;20263;-86
2021/12/05 05:14:48;;;;;;;25.07;10.27;;;;;;;8.14;100.00;98816.81;4955216;29;20640;-85
2021/12/05 05:17:14;;;;;;;20.40;9.53;;;;;;;6.28;100.00;98503.88;4955060;29;20176;-85
2021/12/05 05:19:45;;;;;;;22.33;10.03;;;;;;;8.22;100.00;98825.59;4953952;29;20176;-85
2021/12/05 05:22:25;;;;;;;19.53;9.53;;;;;;;6.89;100.00;98610.63;4955694;29;20157;-85
2021/12/05 05:25:41;;;;;;;20.60;8.80;;;;;;;5.76;100.00;98431.13;4956185;29;20242;-85
2021/12/05 05:41:53;;;;;;;21.77;10.23;;;;;;;7.81;100.00;98748.19;4954866;29;20230;-85
2021/12/05 05:44:10;;;;;;;19.40;9.80;;;;;;;7.86;100.00;98748.38;4954780;29;20629;-85
2021/12/05 05:49:22;;;;;;;18.03;8.93;;;;;;;6.79;100.00;98550.59;4973953;29;20651;-85
2021/12/05 05:51:48;;;;;;;20.33;9.10;;;;;;;8.36;100.00;98819.50;4948272;29;20262;-85
2021/12/05 05:54:14;;;;;;;30.73;13.03;;;;;;;7.72;100.00;98710.84;4938236;29;20319;-85
2021/12/05 05:56:43;;;;;;;28.03;12.17;;;;;;;6.26;100.00;98487.88;4960554;29;20169;-85
2021/12/05 05:59:21;;;;;;;31.37;13.60;;;;;;;7.07;100.00;98613.94;4955404;29;20165;-85
2021/12/05 06:04:14;;;;;;;27.67;13.27;;;;;;;6.15;100.00;98463.91;4959583;28;20172;-85
2021/12/05 06:06:40;;;;;;;35.17;14.73;;;;;;;8.08;100.00;98798.91;4959857;29;20200;-84
2021/12/05 06:09:06;;;;;;;36.37;14.63;;;;;;;7.63;100.00;98718.03;4959150;29;20176;-85
2021/12/05 06:11:31;;;;;;;33.93;15.20;;;;;;;5.42;100.00;98387.66;4960101;29;20168;-85
2021/12/05 06:13:57;;;;;;;38.13;14.73;;;;;;;8.36;100.00;98859.88;4959500;29;20200;-85
2021/12/05 06:16:22;;;;;;;35.00;15.20;;;;;;;6.94;100.00;98607.50;4960915;29;20207;-85
2021/12/05 06:18:48;;;;;;;36.70;14.23;;;;;;;6.88;100.00;98591.28;4960826;29;20171;-86
2021/12/05 06:21:15;;;;;;;30.33;13.30;;;;;;;7.09;100.00;98642.53;4962186;29;20176;-86
2021/12/05 06:23:41;;;;;;;32.47;14.87;;;;;;;8.35;100.00;98872.41;4961389;29;20614;-85
2021/12/05 06:26:10;;;;;;;30.07;13.70;;;;;;;8.45;100.00;98867.84;4958291;29;20169;-84
2021/12/05 06:28:41;;;;;;;35.90;15.03;;;;;;;5.72;100.00;98438.41;4978530;28;20188;-84
2021/12/05 06:47:12;;;;;;;84.70;40.23;;;;;;;8.04;100.00;98781.94;4957939;29;20236;-85
2021/12/05 06:49:40;;;;;;;55.47;24.40;;;;;;;8.08;100.00;98783.78;4963204;29;20165;-84
2021/12/05 06:52:07;;;;;;;36.90;15.73;;;;;;;6.56;100.00;98537.03;4943779;29;20177;-85
2021/12/05 06:54:35;;;;;;;43.90;19.57;;;;;;;8.73;100.00;98885.00;4960346;29;20216;-84
2021/12/05 06:57:00;;;;;;;48.17;18.97;;;;;;;8.38;100.00;98812.88;4960788;29;20153;-85
2021/12/05 06:59:26;;;;;;;40.10;18.10;;;;;;;6.93;100.00;98552.09;4958709;29;20227;-84
2021/12/05 07:01:52;;;;;;;76.80;34.93;;;;;;;7.77;100.00;98678.31;4944030;29;20196;-83
2021/12/05 07:07:10;;;;;;;47.60;16.57;;;;;;;7.54;100.00;98647.09;4881601;29;20199;-85
2021/12/05 07:09:36;;;;;;;42.97;16.77;;;;;;;7.80;100.00;98692.69;4883659;29;20254;-85
2021/12/05 07:15:02;;;;;;;41.77;17.03;;;;;;;8.22;100.00;98762.56;4890917;29;20251;-85
2021/12/05 07:25:30;;;;;;;46.33;18.63;;;;;;;8.69;100.00;98780.56;4893251;29;20235;-84
2021/12/05 07:41:51;;;;;;;84.67;29.37;;;;;;;9.35;100.00;98877.47;4880344;29;20227;-86
2021/12/05 07:44:16;;;;;;;57.23;20.57;;;;;;;8.67;100.00;98787.22;4931879;29;20211;-84
2021/12/05 07:46:42;;;;;;;66.60;23.00;;;;;;;8.17;100.00;98718.66;4957333;29;20185;-85
2021/12/05 07:49:10;;;;;;;65.10;21.53;;;;;;;7.04;100.00;98508.13;4957911;29;20188;-85
2021/12/05 07:51:41;;;;;;;83.17;24.40;;;;;;;9.29;100.00;98889.84;4960579;29;20176;-86
2021/12/05 07:54:13;;;;;;;72.60;23.53;;;;;;;8.80;100.00;98808.75;4962402;28;20258;-83
2021/12/05 07:56:45;;;;;;;69.67;22.33;;;;;;;7.92;100.00;98655.41;4961087;28;20177;-84
2021/12/05 07:59:46;;;;;;;75.07;24.43;;;;;;;9.41;100.00;98875.22;4969489;28;20706;-86
2021/12/05 08:16:01;;;;;;;271.20;100.77;;;;;;;9.61;100.00;98870.94;4976409;28;20171;-85
2021/12/05 08:18:28;;;;;;;212.57;87.77;;;;;;;9.72;100.00;98878.13;4976080;28;20164;-84
2021/12/05 08:20:54;;;;;;;85.17;37.23;;;;;;;9.64;100.00;98874.41;4960707;28;20172;-85
2021/12/05 08:23:22;;;;;;;74.03;28.77;;;;;;;8.26;100.00;98650.97;4977512;28;20167;-85
2021/12/05 08:25:55;;;;;;;63.27;24.17;;;;;;;9.72;100.00;98882.31;4974740;28;20604;-85
2021/12/05 08:28:41;;;;;;;63.43;25.20;;;;;;;7.75;100.00;98527.91;4958702;28;20180;-87
2021/12/05 08:31:23;;;;;;;66.87;25.70;;;;;;;8.62;100.00;98704.56;4992512;28;20172;-85
2021/12/05 08:39:31;;;;;;;86.17;36.13;;;;;;;9.11;100.00;98682.97;4975909;28;20178;-84
2021/12/05 10:11:15;;;;;;;167.77;60.60;;;;;;;10.59;95.60;98674.69;4842919;29;20256;-84
2021/12/05 10:33:51;;;;;;;64.43;28.73;;;;;;;11.07;95.47;98741.22;4865128;29;20279;-84
2021/12/05 10:38:51;;;;;;;55.77;26.40;;;;;;;10.87;95.73;98719.47;4870888;29;20241;-85
2021/12/05 10:43:52;;;;;;;44.70;21.30;;;;;;;9.88;94.00;98518.94;4893944;29;20164;-83
2021/12/05 10:46:21;;;;;;;49.73;23.77;;;;;;;10.96;94.05;98662.34;4887741;29;20175;-83
2021/12/05 10:48:50;;;;;;;49.20;22.97;;;;;;;11.48;91.79;98699.34;4885201;29;20172;-84
2021/12/05 10:51:24;;;;;;;50.67;23.57;;;;;;;9.28;91.30;98335.09;4866721;29;20168;-83
2021/12/05 10:53:55;;;;;;;53.90;25.60;;;;;;;10.48;93.27;98524.19;4883435;29;20176;-83
2021/12/05 10:56:27;;;;;;;58.17;30.07;;;;;;;11.64;94.07;98747.13;4889054;29;20223;-85
2021/12/05 10:58:58;;;;;;;53.17;26.90;;;;;;;11.82;93.78;98738.41;4900840;29;20182;-84
2021/12/05 11:01:24;;;;;;;148.17;56.50;;;;;;;11.92;92.46;98736.13;4897671;29;20230;-85
2021/12/05 11:03:59;;;;;;;102.00;42.90;;;;;;;9.59;92.07;98355.41;4920014;29;20237;-85
2021/12/05 11:06:27;;;;;;;59.23;28.47;;;;;;;11.96;92.36;98728.63;4903733;29;20269;-84
2021/12/05 11:09:09;;;;;;;47.67;24.83;;;;;;;11.74;93.22;98724.66;4904664;29;20632;-83
2021/12/05 11:11:36;;;;;;;69.83;35.33;;;;;;;11.84;92.51;98728.28;4905981;29;20647;-85
2021/12/05 11:14:07;;;;;;;51.37;25.77;;;;;;;11.60;92.40;98674.34;4903670;29;20167;-84
2021/12/05 11:16:33;;;;;;;68.10;38.33;;;;;;;11.44;92.62;98652.78;4922057;29;20197;-84
2021/12/05 11:18:59;;;;;;;70.17;38.07;;;;;;;10.58;91.92;98524.50;4903023;29;20163;-83
2021/12/05 11:21:32;;;;;;;59.60;30.47;;;;;;;10.60;92.33;98519.50;4906249;29;20173;-85
2021/12/05 11:24:41;;;;;;;50.50;26.67;;;;;;;11.68;92.21;98683.00;4903886;29;20749;-85
2021/12/05 11:27:37;;;;;;;68.07;30.43;;;;;;;11.89;91.41;98716.63;4862226;29;20602;-83
2021/12/05 11:30:30;;;;;;;47.57;25.10;;;;;;;11.76;92.40;98712.00;4843661;29;20257;-84
2021/12/05 11:33:17;;;;;;;97.90;44.40;;;;;;;11.69;92.23;98711.00;4843447;29;20176;-84
2021/12/05 11:35:49;;;;;;;46.93;23.63;;;;;;;8.89;91.68;98269.06;4844816;29;20206;-85
2021/12/05 11:38:19;;;;;;;46.50;25.00;;;;;;;11.70;92.26;98727.91;4843243;29;20188;-84
2021/12/05 11:40:59;;;;;;;48.70;24.90;;;;;;;10.35;91.45;98504.41;4843544;29;20264;-85
2021/12/05 11:43:45;;;;;;;59.93;31.77;;;;;;;11.14;93.01;98644.31;4844783;29;20192;-83
2021/12/05 11:46:15;;;;;;;65.77;33.07;;;;;;;11.60;94.05;98714.91;4844306;29;20167;-85
2021/12/05 11:48:53;;;;;;;49.33;25.83;;;;;;;9.72;94.23;98415.66;4851155;29;20191;-86
2021/12/05 11:51:35;;;;;;;54.00;26.53;;;;;;;11.52;94.14;98716.34;4862988;29;20282;-86
2021/12/05 11:54:05;;;;;;;42.77;20.53;;;;;;;11.53;93.75;98711.34;4844138;29;20608;-85
2021/12/05 11:56:30;;;;;;;45.47;23.73;;;;;;;11.47;94.22;98697.63;4844009;29;20199;-85
2021/12/05 11:59:18;;;;;;;49.97;24.77;;;;;;;11.40;95.00;98695.75;4847083;29;20287;-85
2021/12/05 12:01:49;;;;;;;45.90;22.07;;;;;;;11.68;94.08;98690.63;4852799;29;20234;-85
2021/12/05 12:04:19;;;;;;;42.47;20.33;;;;;;;10.56;92.46;98499.97;4901362;29;20167;-84
2021/12/05 12:07:05;;;;;;;44.50;22.23;;;;;;;11.59;93.33;98687.84;4900824;29;20199;-84
2021/12/05 12:09:31;;;;;;;47.33;23.60;;;;;;;11.63;93.31;98694.72;4901221;29;20269;-84
2021/12/05 12:11:57;;;;;;;75.80;36.67;;;;;;;9.76;92.77;98397.22;4904183;29;20567;-86
2021/12/05 12:14:22;;;;;;;51.77;28.57;;;;;;;9.86;93.71;98434.59;4922618;29;20190;-85
2021/12/05 12:16:50;;;;;;;38.83;18.57;;;;;;;9.01;93.40;98296.34;4919791;29;20162;-84
2021/12/05 12:19:21;;;;;;;39.97;18.60;;;;;;;8.32;94.64;98198.25;4919299;29;20186;-85
2021/12/05 12:21:48;;;;;;;33.90;16.77;;;;;;;11.13;95.67;98683.97;4921318;29;20314;-86
2021/12/05 12:24:15;;;;;;;38.37;18.90;;;;;;;11.32;95.60;98682.84;4920420;29;20182;-84
2021/12/05 12:26:42;;;;;;;41.97;20.40;;;;;;;8.88;95.08;98272.38;4918762;29;20202;-84
2021/12/05 12:29:11;;;;;;;37.40;19.10;;;;;;;9.23;94.96;98362.69;4939366;29;20173;-87
2021/12/05 12:31:40;;;;;;;41.10;19.80;;;;;;;11.03;95.99;98664.25;4924424;29;20170;-85
2021/12/05 12:34:20;;;;;;;41.30;20.07;;;;;;;11.19;95.53;98663.91;4918544;29;20205;-86
2021/12/05 12:36:58;;;;;;;40.03;19.83;;;;;;;11.22;95.40;98664.00;4919066;29;20201;-85
2021/12/05 12:39:53;;;;;;;42.87;21.70;;;;;;;11.35;95.56;98666.84;4919259;29;20210;-85
2021/12/05 12:42:23;;;;;;;69.80;34.50;;;;;;;11.40;94.35;98685.59;4862572;29;20218;-82
2021/12/05 12:45:21;;;;;;;42.50;20.87;;;;;;;11.56;93.22;98663.28;4862749;29;20741;-85
2021/12/05 12:47:52;;;;;;;40.47;19.00;;;;;;;11.66;92.96;98665.25;4862804;29;20227;-85
2021/12/05 12:50:29;;;;;;;43.67;21.93;;;;;;;10.89;92.08;98548.19;4861730;29;20220;-85
2021/12/05 12:53:29;;;;;;;40.27;18.97;;;;;;;11.40;91.62;98643.38;4860482;29;20196;-85
2021/12/05 12:55:58;;;;;;;38.47;20.10;;;;;;;11.52;93.06;98669.06;4860766;29;20198;-85
2021/12/05 12:58:46;;;;;;;46.10;22.47;;;;;;;10.75;93.10;98534.25;4860933;29;20692;-84
2021/12/05 13:10:04;;;;;;;39.10;19.87;;;;;;;10.88;93.61;98605.53;4865412;29;20190;-85
2021/12/05 13:12:49;;;;;;;58.13;27.60;;;;;;;9.46;94.16;98379.47;4863817;29;20363;-85
2021/12/05 13:15:17;;;;;;;42.73;23.20;;;;;;;11.35;94.27;98675.31;4860924;29;20251;-85
2021/12/05 13:17:46;;;;;;;48.70;26.60;;;;;;;11.25;92.93;98648.00;4860294;29;20676;-85
2021/12/05 13:20:15;;;;;;;56.53;29.27;;;;;;;10.92;93.16;98583.72;4861705;29;20179;-85
2021/12/05 13:23:20;;;;;;;49.57;25.00;;;;;;;11.05;94.04;98646.56;4869370;29;20215;-83
2021/12/05 13:26:10;;;;;;;46.27;26.07;;;;;;;11.13;94.48;98670.44;4831996;29;20204;-85
2021/12/05 13:28:47;;;;;;;54.60;27.87;;;;;;;10.56;95.36;98573.38;4827507;29;20281;-85
2021/12/05 13:31:30;;;;;;;48.17;24.50;;;;;;;10.93;95.31;98619.19;4841182;29;20207;-83
2021/12/05 13:34:24;;;;;;;45.57;24.00;;;;;;;10.99;95.74;98651.44;4839841;29;20240;-84
2021/12/05 13:36:55;;;;;;;43.47;22.90;;;;;;;11.14;95.64;98655.31;4840311;29;20188;-83
2021/12/05 13:39:32;;;;;;;43.23;21.47;;;;;;;11.02;95.44;98660.00;4843675;29;20191;-85
2021/12/05 13:42:06;;;;;;;44.03;21.40;;;;;;;10.52;96.86;98642.41;4914283;29;20193;-85
2021/12/05 13:44:59;;;;;;;42.57;22.63;;;;;;;10.75;97.44;98666.75;4918819;29;20189;-85
2021/12/05 13:47:31;;;;;;;45.13;22.07;;;;;;;10.22;98.49;98621.19;4917955;29;20257;-83
2021/12/05 13:50:18;;;;;;;39.83;20.03;;;;;;;10.50;98.65;98670.19;4917252;29;20514;-84
2021/12/05 13:53:01;;;;;;;47.03;23.47;;;;;;;10.31;100.00;98667.00;4861346;29;20195;-84
2021/12/05 13:55:45;;;;;;;42.50;21.47;;;;;;;10.13;100.00;98672.34;4858169;29;20191;-85
2021/12/05 13:58:32;;;;;;;47.33;22.77;;;;;;;10.03;100.00;98665.19;4859061;29;20236;-83
2021/12/05 14:01:15;;;;;;;47.57;23.07;;;;;;;9.44;100.00;98587.34;4864027;29;20932;-84
2021/12/05 14:04:03;;;;;;;48.67;24.47;;;;;;;8.36;100.00;98408.47;4867806;29;20326;-84
2021/12/05 14:06:53;;;;;;;48.67;23.30;;;;;;;9.80;100.00;98656.00;4863992;29;20564;-84
2021/12/05 14:09:27;;;;;;;48.37;24.03;;;;;;;9.83;100.00;98662.00;4868266;29;20172;-83
2021/12/05 14:12:07;;;;;;;48.70;24.57;;;;;;;8.96;100.00;98527.53;4863928;29;20219;-83
2021/12/05 14:14:40;;;;;;;51.90;24.93;;;;;;;9.76;100.00;98666.78;4865233;29;20203;-84
2021/12/05 14:17:22;;;;;;;46.30;23.50;;;;;;;9.75;100.00;98668.44;4862395;29;20259;-84
2021/12/05 14:19:54;;;;;;;48.70;24.23;;;;;;;9.23;100.00;98589.13;4857519;29;20179;-84
2021/12/05 14:22:22;;;;;;;51.47;24.60;;;;;;;9.59;100.00;98665.31;4860791;29;20196;-84
2021/12/05 14:24:53;;;;;;;56.37;28.37;;;;;;;8.54;100.00;98482.28;4871472;29;20608;-83
2021/12/05 14:27:25;;;;;;;87.33;42.07;;;;;;;9.42;100.00;98636.97;4878799;29;20282;-84
2021/12/05 14:29:52;;;;;;;65.40;32.13;;;;;;;9.33;100.00;98650.13;4908041;29;20273;-84
2021/12/05 14:32:23;;;;;;;62.30;31.43;;;;;;;8.28;100.00;98488.03;4920825;29;20226;-81
2021/12/05 14:35:13;;;;;;;53.73;27.73;;;;;;;9.32;100.00;98661.00;4919749;29;20256;-84
2021/12/05 14:37:43;;;;;;;62.77;33.47;;;;;;;9.22;100.00;98666.53;4918453;29;20666;-84
2021/12/05 14:40:15;;;;;;;65.17;32.47;;;;;;;7.80;100.00;98425.66;4923058;29;20192;-84
2021/12/05 14:42:45;;;;;;;68.37;34.30;;;;;;;8.03;100.00;98470.22;4921358;29;20186;-84
2021/12/05 14:45:12;;;;;;;59.80;30.97;;;;;;;7.72;100.00;98438.78;4920255;29;20178;-85
2021/12/05 14:47:40;;;;;;;61.27;30.57;;;;;;;8.37;100.00;98559.00;4918904;29;20197;-85
2021/12/05 14:50:12;;;;;;;60.83;30.40;;;;;;;9.00;100.00;98665.69;4919935;29;20650;-84
2021/12/05 14:52:40;;;;;;;62.17;30.30;;;;;;;8.46;100.00;98593.78;4923005;29;20266;-84
2021/12/05 14:55:10;;;;;;;66.60;29.67;;;;;;;8.84;100.00;98664.25;4919737;29;20248;-84
2021/12/05 14:57:51;;;;;;;66.03;32.40;;;;;;;7.47;100.00;98468.84;4919614;29;20172;-84
2021/12/05 15:00:24;;;;;;;68.83;34.93;;;;;;;8.74;100.00;98670.59;4919432;29;21197;-85
2021/12/05 15:02:58;;;;;;;72.70;36.10;;;;;;;8.41;100.00;98618.81;4920645;29;20182;-84
2021/12/05 15:05:23;;;;;;;78.83;37.30;;;;;;;7.42;100.00;98472.81;4920778;29;20174;-85
2021/12/05 15:07:49;;;;;;;111.10;52.27;;;;;;;8.13;100.00;98552.97;4919484;29;20205;-85
2021/12/05 15:10:19;;;;;;;92.43;42.83;;;;;;;7.19;100.00;98367.84;4918291;29;20278;-85
2021/12/05 15:12:45;;;;;;;94.70;46.47;;;;;;;6.50;100.00;98250.16;4918985;29;20209;-84
2021/12/05 15:15:12;;;;;;;86.90;41.60;;;;;;;9.19;100.00;98689.16;4918652;29;20213;-84
2021/12/05 15:17:40;;;;;;;109.10;53.70;;;;;;;8.40;100.00;98574.25;4919120;29;20178;-84
2021/12/05 15:20:14;;;;;;;116.43;57.33;;;;;;;7.79;100.00;98434.00;4920206;29;20167;-83
2021/12/05 15:22:43;;;;;;;85.53;42.03;;;;;;;9.43;100.00;98696.75;4922592;29;20683;-85
2021/12/05 15:25:14;;;;;;;80.57;41.07;;;;;;;9.45;100.00;98692.63;4923247;29;20167;-84
2021/12/05 15:27:41;;;;;;;92.63;45.70;;;;;;;6.74;100.00;98255.31;4921531;29;20233;-85
2021/12/05 15:30:25;;;;;;;84.60;41.30;;;;;;;9.42;100.00;98692.53;4920601;29;20523;-85
2021/12/05 15:33:00;;;;;;;88.23;44.53;;;;;;;8.85;100.00;98618.00;4919832;29;20651;-89
2021/12/05 15:35:27;;;;;;;80.83;40.57;;;;;;;6.91;100.00;98279.47;4920102;29;20189;-85
2021/12/05 15:37:54;;;;;;;85.67;43.73;;;;;;;9.49;100.00;98704.56;4917914;29;20662;-85
2021/12/05 15:40:22;;;;;;;77.23;39.40;;;;;;;7.69;100.00;98410.13;4920065;29;20201;-85
2021/12/05 15:42:48;;;;;;;80.17;39.60;;;;;;;8.39;100.00;98536.34;4918497;29;20181;-86
2021/12/05 15:45:18;;;;;;;80.40;42.00;;;;;;;7.99;100.00;98436.50;4921892;29;20174;-85
2021/12/05 15:47:46;;;;;;;71.23;35.10;;;;;;;7.17;100.00;98324.13;4917128;29;20205;-85
2021/12/05 15:50:14;;;;;;;75.00;38.47;;;;;;;6.39;100.00;98204.50;4921325;29;20257;-86
2021/12/05 15:52:42;;;;;;;82.10;39.33;;;;;;;9.24;100.00;98707.00;4919120;29;20513;-85
2021/12/05 15:55:14;;;;;;;81.80;40.00;;;;;;;9.30;100.00;98702.19;4923956;29;20624;-84
2021/12/05 15:57:44;;;;;;;93.93;44.00;;;;;;;7.42;100.00;98412.41;4919292;29;20174;-85
2021/12/05 16:00:18;;;;;;;89.03;42.00;;;;;;;9.34;100.00;98698.94;4920049;29;20198;-85
2021/12/05 16:02:47;;;;;;;83.50;39.30;;;;;;;6.92;100.00;98281.22;4925100;29;20289;-83
2021/12/05 16:05:19;;;;;;;87.13;41.33;;;;;;;7.75;100.00;98422.09;4912500;29;21149;-85
2021/12/05 16:07:45;;;;;;;86.37;40.40;;;;;;;7.73;100.00;98405.25;4909781;29;20560;-84
2021/12/05 16:10:20;;;;;;;96.73;49.03;;;;;;;8.24;100.00;98516.44;4921450;29;20209;-87
2021/12/05 16:12:47;;;;;;;83.77;41.33;;;;;;;8.27;100.00;98535.06;4904628;29;20738;-84
2021/12/05 16:15:15;;;;;;;78.77;36.37;;;;;;;6.85;100.00;98286.78;4897809;29;20191;-83
2021/12/05 16:17:41;;;;;;;78.70;38.20;;;;;;;8.66;100.00;98587.81;4902984;29;20636;-85
2021/12/05 16:20:10;;;;;;;88.23;44.10;;;;;;;9.30;100.00;98705.56;4900222;29;20233;-86
2021/12/05 16:22:59;;;;;;;82.00;40.67;;;;;;;9.28;100.00;98697.09;4899072;29;20262;-85
2021/12/05 16:25:26;;;;;;;77.57;39.33;;;;;;;8.09;100.00;98500.69;4907219;29;20235;-85
2021/12/05 16:27:59;;;;;;;82.43;41.33;;;;;;;6.64;100.00;98264.16;4913877;29;20210;-84
2021/12/05 16:30:28;;;;;;;96.10;46.27;;;;;;;6.89;100.00;98341.47;4902272;29;20195;-83
2021/12/05 16:32:54;;;;;;;95.93;47.07;;;;;;;7.26;100.00;98396.63;4899870;29;20202;-84
2021/12/05 16:35:26;;;;;;;83.87;40.33;;;;;;;9.19;100.00;98723.63;4899214;29;20171;-84
2021/12/05 16:37:52;;;;;;;74.47;35.10;;;;;;;8.79;100.00;98653.94;4901111;29;20166;-84
2021/12/05 16:40:17;;;;;;;71.73;35.13;;;;;;;8.61;100.00;98615.41;4899468;29;20167;-85
2021/12/05 16:42:44;;;;;;;111.87;49.50;;;;;;;7.30;100.00;98416.97;4899057;29;20193;-84
2021/12/05 16:45:11;;;;;;;73.83;35.90;;;;;;;7.31;100.00;98412.75;4896914;29;20708;-83
2021/12/05 16:47:43;;;;;;;131.00;58.60;;;;;;;9.23;100.00;98721.28;4898576;29;20202;-84
2021/12/05 16:50:13;;;;;;;74.27;34.33;;;;;;;8.24;100.00;98561.81;4899181;29;20170;-83
2021/12/05 16:52:47;;;;;;;118.07;52.37;;;;;;;8.27;100.00;98551.84;4899482;29;20170;-84
2021/12/05 16:55:24;;;;;;;186.13;78.63;;;;;;;8.46;100.00;98583.72;4899067;29;20549;-85
2021/12/05 17:00:45;;;;;;;72.73;37.00;;;;;;;6.56;100.00;98277.22;4897321;29;20230;-86